sensor_id;sensor_type;location;lat;lon;timestamp;P1;durP1;ratioP1;P2;durP2;ratioP2
5042;SDS011;2540;50.928;6.856;2023-03-23T00:01:16;3.63;;;1.77;;
5042;SDS011;2540;50.928;6.856;2023-03-23T00:03:44;2.40;;;1.50;;
5042;SDS011;2540;50.928;6.856;2023-03-23T00:06:10;3.23;;;1.90;;
5042;SDS011;2540;50.928;6.856;2023-03-23T00:08:41;2.57;;;1.83;;
5042;SDS011;2540;50.928;6.856;2023-03-23T00:11:10;6.53;;;1.90;;
5042;SDS011;2540;50.928;6.856;2023-03-23T00:13:44;3.00;;;1.63;;
5042;SDS011;2540;50.928;6.856;2023-03-23T00:16:11;1.63;;;1.50;;
5042;SDS011;2540;50.928;6.856;2023-03-23T00:18:45;2.87;;;1.43;;
5042;SDS011;2540;50.928;6.856;2023-03-23T00:21:18;1.30;;;1.20;;
5042;SDS011;2540;50.928;6.856;2023-03-23T00:23:44;1.23;;;1.13;;
5042;SDS011;2540;50.928;6.856;2023-03-23T00:26:10;2.83;;;1.50;;
5042;SDS011;2540;50.928;6.856;2023-03-23T00:28:36;4.10;;;2.10;;
5042;SDS011;2540;50.928;6.856;2023-03-23T00:31:04;1.40;;;1.27;;
5042;SDS011;2540;50.928;6.856;2023-03-23T00:33:34;6.13;;;1.40;;
5042;SDS011;2540;50.928;6.856;2023-03-23T00:36:06;1.80;;;1.47;;
5042;SDS011;2540;50.928;6.856;2023-03-23T00:38:33;2.50;;;1.60;;
5042;SDS011;2540;50.928;6.856;2023-03-23T00:40:59;2.13;;;1.10;;
5042;SDS011;2540;50.928;6.856;2023-03-23T00:43:27;4.07;;;1.43;;
5042;SDS011;2540;50.928;6.856;2023-03-23T00:45:54;1.73;;;1.20;;
5042;SDS011;2540;50.928;6.856;2023-03-23T00:48:20;1.80;;;1.33;;
5042;SDS011;2540;50.928;6.856;2023-03-23T00:50:46;3.00;;;1.40;;
5042;SDS011;2540;50.928;6.856;2023-03-23T00:53:12;3.23;;;1.40;;
5042;SDS011;2540;50.928;6.856;2023-03-23T00:55:37;2.93;;;1.50;;
5042;SDS011;2540;50.928;6.856;2023-03-23T00:58:02;2.93;;;1.60;;
5042;SDS011;2540;50.928;6.856;2023-03-23T01:00:28;1.40;;;1.17;;
5042;SDS011;2540;50.928;6.856;2023-03-23T01:02:53;2.23;;;1.50;;
5042;SDS011;2540;50.928;6.856;2023-03-23T01:05:19;3.57;;;1.90;;
5042;SDS011;2540;50.928;6.856;2023-03-23T01:07:45;3.10;;;1.60;;
5042;SDS011;2540;50.928;6.856;2023-03-23T01:10:11;1.60;;;1.50;;
5042;SDS011;2540;50.928;6.856;2023-03-23T01:12:40;1.67;;;1.47;;
5042;SDS011;2540;50.928;6.856;2023-03-23T01:15:06;1.77;;;1.40;;
5042;SDS011;2540;50.928;6.856;2023-03-23T01:17:32;1.47;;;1.37;;
5042;SDS011;2540;50.928;6.856;2023-03-23T01:19:57;2.53;;;1.67;;
5042;SDS011;2540;50.928;6.856;2023-03-23T01:22:23;1.50;;;1.40;;
5042;SDS011;2540;50.928;6.856;2023-03-23T01:24:48;1.60;;;1.43;;
5042;SDS011;2540;50.928;6.856;2023-03-23T01:27:14;2.00;;;1.67;;
5042;SDS011;2540;50.928;6.856;2023-03-23T01:29:39;2.90;;;1.57;;
5042;SDS011;2540;50.928;6.856;2023-03-23T01:32:05;6.10;;;1.70;;
5042;SDS011;2540;50.928;6.856;2023-03-23T01:34:30;1.47;;;1.37;;
5042;SDS011;2540;50.928;6.856;2023-03-23T01:36:56;2.47;;;1.47;;
5042;SDS011;2540;50.928;6.856;2023-03-23T01:39:21;9.80;;;1.90;;
5042;SDS011;2540;50.928;6.856;2023-03-23T01:41:47;2.40;;;1.40;;
5042;SDS011;2540;50.928;6.856;2023-03-23T01:46:40;7.70;;;2.00;;
5042;SDS011;2540;50.928;6.856;2023-03-23T01:49:07;6.50;;;1.20;;
5042;SDS011;2540;50.928;6.856;2023-03-23T01:51:46;2.70;;;1.57;;
5042;SDS011;2540;50.928;6.856;2023-03-23T01:54:15;1.90;;;1.30;;
5042;SDS011;2540;50.928;6.856;2023-03-23T01:56:47;2.63;;;1.50;;
5042;SDS011;2540;50.928;6.856;2023-03-23T01:59:15;2.13;;;1.70;;
5042;SDS011;2540;50.928;6.856;2023-03-23T02:01:41;2.70;;;1.60;;
5042;SDS011;2540;50.928;6.856;2023-03-23T02:04:10;1.63;;;1.13;;
5042;SDS011;2540;50.928;6.856;2023-03-23T02:06:37;1.83;;;1.73;;
5042;SDS011;2540;50.928;6.856;2023-03-23T02:09:02;2.40;;;1.70;;
5042;SDS011;2540;50.928;6.856;2023-03-23T02:11:31;2.50;;;1.60;;
5042;SDS011;2540;50.928;6.856;2023-03-23T02:13:56;1.73;;;1.63;;
5042;SDS011;2540;50.928;6.856;2023-03-23T02:16:28;3.00;;;1.70;;
5042;SDS011;2540;50.928;6.856;2023-03-23T02:35:18;2.23;;;2.03;;
5042;SDS011;2540;50.928;6.856;2023-03-23T02:37:50;3.97;;;1.83;;
5042;SDS011;2540;50.928;6.856;2023-03-23T02:40:21;4.17;;;2.53;;
5042;SDS011;2540;50.928;6.856;2023-03-23T02:42:52;6.10;;;2.87;;
5042;SDS011;2540;50.928;6.856;2023-03-23T02:45:19;3.60;;;2.30;;
5042;SDS011;2540;50.928;6.856;2023-03-23T02:47:46;7.27;;;2.37;;
5042;SDS011;2540;50.928;6.856;2023-03-23T02:50:13;5.90;;;2.40;;
5042;SDS011;2540;50.928;6.856;2023-03-23T02:52:40;4.03;;;2.03;;
5042;SDS011;2540;50.928;6.856;2023-03-23T02:55:07;7.53;;;1.70;;
5042;SDS011;2540;50.928;6.856;2023-03-23T02:57:33;4.57;;;1.73;;
5042;SDS011;2540;50.928;6.856;2023-03-23T02:59:59;1.90;;;1.70;;
5042;SDS011;2540;50.928;6.856;2023-03-23T03:02:31;4.80;;;1.90;;
5042;SDS011;2540;50.928;6.856;2023-03-23T03:05:08;8.70;;;1.70;;
5042;SDS011;2540;50.928;6.856;2023-03-23T03:15:09;2.83;;;1.97;;
5042;SDS011;2540;50.928;6.856;2023-03-23T03:17:43;3.23;;;2.10;;
5042;SDS011;2540;50.928;6.856;2023-03-23T03:20:11;1.70;;;1.60;;
5042;SDS011;2540;50.928;6.856;2023-03-23T03:22:39;4.33;;;2.00;;
5042;SDS011;2540;50.928;6.856;2023-03-23T03:25:09;4.57;;;2.30;;
5042;SDS011;2540;50.928;6.856;2023-03-23T03:27:37;2.03;;;1.33;;
5042;SDS011;2540;50.928;6.856;2023-03-23T03:30:05;2.00;;;1.60;;
5042;SDS011;2540;50.928;6.856;2023-03-23T03:32:36;2.50;;;1.87;;
5042;SDS011;2540;50.928;6.856;2023-03-23T03:35:05;1.50;;;1.40;;
5042;SDS011;2540;50.928;6.856;2023-03-23T03:37:37;3.67;;;2.40;;
5042;SDS011;2540;50.928;6.856;2023-03-23T03:40:08;2.13;;;1.60;;
5042;SDS011;2540;50.928;6.856;2023-03-23T03:42:37;2.80;;;1.90;;
5042;SDS011;2540;50.928;6.856;2023-03-23T03:45:03;1.87;;;1.60;;
5042;SDS011;2540;50.928;6.856;2023-03-23T03:47:29;1.83;;;1.30;;
5042;SDS011;2540;50.928;6.856;2023-03-23T03:49:54;2.77;;;1.60;;
5042;SDS011;2540;50.928;6.856;2023-03-23T03:52:20;3.67;;;1.90;;
5042;SDS011;2540;50.928;6.856;2023-03-23T03:54:45;5.00;;;1.80;;
5042;SDS011;2540;50.928;6.856;2023-03-23T03:57:11;2.67;;;1.97;;
5042;SDS011;2540;50.928;6.856;2023-03-23T03:59:36;1.70;;;1.60;;
5042;SDS011;2540;50.928;6.856;2023-03-23T04:02:02;5.33;;;1.60;;
5042;SDS011;2540;50.928;6.856;2023-03-23T04:04:28;1.43;;;1.33;;
5042;SDS011;2540;50.928;6.856;2023-03-23T04:06:54;2.73;;;1.50;;
5042;SDS011;2540;50.928;6.856;2023-03-23T04:09:19;2.43;;;1.60;;
5042;SDS011;2540;50.928;6.856;2023-03-23T04:11:44;2.60;;;1.80;;
5042;SDS011;2540;50.928;6.856;2023-03-23T04:14:10;5.60;;;2.13;;
5042;SDS011;2540;50.928;6.856;2023-03-23T04:16:35;2.13;;;1.70;;
5042;SDS011;2540;50.928;6.856;2023-03-23T04:19:01;1.33;;;1.23;;
5042;SDS011;2540;50.928;6.856;2023-03-23T04:21:26;2.03;;;1.83;;
5042;SDS011;2540;50.928;6.856;2023-03-23T04:23:54;4.77;;;1.60;;
5042;SDS011;2540;50.928;6.856;2023-03-23T04:26:23;2.17;;;1.60;;
5042;SDS011;2540;50.928;6.856;2023-03-23T04:28:59;1.73;;;1.57;;
5042;SDS011;2540;50.928;6.856;2023-03-23T04:31:25;2.00;;;1.57;;
5042;SDS011;2540;50.928;6.856;2023-03-23T04:33:51;1.50;;;1.00;;
5042;SDS011;2540;50.928;6.856;2023-03-23T04:36:19;1.87;;;1.73;;
5042;SDS011;2540;50.928;6.856;2023-03-23T04:38:47;3.87;;;2.60;;
5042;SDS011;2540;50.928;6.856;2023-03-23T04:41:12;2.43;;;1.90;;
5042;SDS011;2540;50.928;6.856;2023-03-23T04:43:38;2.00;;;1.80;;
5042;SDS011;2540;50.928;6.856;2023-03-23T04:46:06;4.40;;;2.00;;
5042;SDS011;2540;50.928;6.856;2023-03-23T04:48:33;2.20;;;1.53;;
5042;SDS011;2540;50.928;6.856;2023-03-23T04:51:02;2.77;;;1.90;;
5042;SDS011;2540;50.928;6.856;2023-03-23T04:53:29;2.80;;;1.90;;
5042;SDS011;2540;50.928;6.856;2023-03-23T04:55:55;2.90;;;2.17;;
5042;SDS011;2540;50.928;6.856;2023-03-23T04:58:20;2.50;;;2.13;;
5042;SDS011;2540;50.928;6.856;2023-03-23T05:00:48;3.50;;;2.17;;
5042;SDS011;2540;50.928;6.856;2023-03-23T05:03:15;1.87;;;1.77;;
5042;SDS011;2540;50.928;6.856;2023-03-23T05:05:41;2.90;;;2.20;;
5042;SDS011;2540;50.928;6.856;2023-03-23T05:08:07;3.47;;;2.17;;
5042;SDS011;2540;50.928;6.856;2023-03-23T05:10:33;2.30;;;1.93;;
5042;SDS011;2540;50.928;6.856;2023-03-23T05:12:58;4.37;;;3.00;;
5042;SDS011;2540;50.928;6.856;2023-03-23T05:15:23;3.20;;;2.67;;
5042;SDS011;2540;50.928;6.856;2023-03-23T05:17:50;5.10;;;2.60;;
5042;SDS011;2540;50.928;6.856;2023-03-23T05:20:16;2.87;;;2.30;;
5042;SDS011;2540;50.928;6.856;2023-03-23T05:22:45;3.47;;;2.67;;
5042;SDS011;2540;50.928;6.856;2023-03-23T05:25:14;5.30;;;2.20;;
5042;SDS011;2540;50.928;6.856;2023-03-23T05:27:40;8.27;;;2.60;;
5042;SDS011;2540;50.928;6.856;2023-03-23T05:30:13;3.80;;;2.20;;
5042;SDS011;2540;50.928;6.856;2023-03-23T05:32:40;2.43;;;2.00;;
5042;SDS011;2540;50.928;6.856;2023-03-23T05:35:06;3.30;;;2.10;;
5042;SDS011;2540;50.928;6.856;2023-03-23T05:37:31;3.07;;;2.10;;
5042;SDS011;2540;50.928;6.856;2023-03-23T05:39:57;4.10;;;2.20;;
5042;SDS011;2540;50.928;6.856;2023-03-23T05:42:26;3.43;;;2.33;;
5042;SDS011;2540;50.928;6.856;2023-03-23T05:44:52;2.63;;;1.87;;
5042;SDS011;2540;50.928;6.856;2023-03-23T05:47:18;3.90;;;1.97;;
5042;SDS011;2540;50.928;6.856;2023-03-23T05:49:43;2.33;;;2.13;;
5042;SDS011;2540;50.928;6.856;2023-03-23T05:52:09;2.17;;;1.60;;
5042;SDS011;2540;50.928;6.856;2023-03-23T05:54:35;4.10;;;2.17;;
5042;SDS011;2540;50.928;6.856;2023-03-23T05:57:01;3.33;;;1.70;;
5042;SDS011;2540;50.928;6.856;2023-03-23T05:59:26;1.70;;;1.57;;
5042;SDS011;2540;50.928;6.856;2023-03-23T06:01:52;1.30;;;1.27;;
5042;SDS011;2540;50.928;6.856;2023-03-23T06:04:20;2.57;;;1.90;;
5042;SDS011;2540;50.928;6.856;2023-03-23T06:06:49;3.07;;;1.40;;
5042;SDS011;2540;50.928;6.856;2023-03-23T06:09:16;2.70;;;1.60;;
5042;SDS011;2540;50.928;6.856;2023-03-23T06:11:42;4.83;;;1.90;;
5042;SDS011;2540;50.928;6.856;2023-03-23T06:14:07;1.43;;;1.23;;
5042;SDS011;2540;50.928;6.856;2023-03-23T06:16:33;6.63;;;1.73;;
5042;SDS011;2540;50.928;6.856;2023-03-23T06:18:58;5.63;;;1.80;;
5042;SDS011;2540;50.928;6.856;2023-03-23T06:21:25;3.80;;;1.80;;
5042;SDS011;2540;50.928;6.856;2023-03-23T06:23:51;2.87;;;1.47;;
5042;SDS011;2540;50.928;6.856;2023-03-23T06:26:16;2.57;;;1.10;;
5042;SDS011;2540;50.928;6.856;2023-03-23T06:28:43;1.23;;;1.00;;
5042;SDS011;2540;50.928;6.856;2023-03-23T06:31:09;2.30;;;1.20;;
5042;SDS011;2540;50.928;6.856;2023-03-23T06:33:37;4.07;;;1.50;;
5042;SDS011;2540;50.928;6.856;2023-03-23T06:36:03;2.63;;;1.30;;
5042;SDS011;2540;50.928;6.856;2023-03-23T06:38:29;5.30;;;1.30;;
5042;SDS011;2540;50.928;6.856;2023-03-23T06:40:55;6.33;;;1.43;;
5042;SDS011;2540;50.928;6.856;2023-03-23T06:43:21;5.03;;;1.20;;
5042;SDS011;2540;50.928;6.856;2023-03-23T06:45:47;2.40;;;1.43;;
5042;SDS011;2540;50.928;6.856;2023-03-23T06:48:12;7.63;;;1.43;;
5042;SDS011;2540;50.928;6.856;2023-03-23T06:50:38;8.43;;;1.40;;
5042;SDS011;2540;50.928;6.856;2023-03-23T06:53:03;3.50;;;1.73;;
5042;SDS011;2540;50.928;6.856;2023-03-23T06:55:29;5.63;;;1.33;;
5042;SDS011;2540;50.928;6.856;2023-03-23T06:57:54;2.40;;;1.60;;
5042;SDS011;2540;50.928;6.856;2023-03-23T07:00:19;4.97;;;1.57;;
5042;SDS011;2540;50.928;6.856;2023-03-23T07:02:45;4.50;;;1.50;;
5042;SDS011;2540;50.928;6.856;2023-03-23T07:05:11;7.57;;;1.60;;
5042;SDS011;2540;50.928;6.856;2023-03-23T07:07:37;5.30;;;1.67;;
5042;SDS011;2540;50.928;6.856;2023-03-23T07:10:03;4.93;;;2.00;;
5042;SDS011;2540;50.928;6.856;2023-03-23T07:12:29;2.50;;;1.60;;
5042;SDS011;2540;50.928;6.856;2023-03-23T07:14:55;1.73;;;1.27;;
5042;SDS011;2540;50.928;6.856;2023-03-23T07:17:20;3.40;;;1.60;;
5042;SDS011;2540;50.928;6.856;2023-03-23T07:19:46;2.50;;;1.60;;
5042;SDS011;2540;50.928;6.856;2023-03-23T07:22:11;3.20;;;2.20;;
5042;SDS011;2540;50.928;6.856;2023-03-23T07:24:37;2.50;;;1.67;;
5042;SDS011;2540;50.928;6.856;2023-03-23T07:27:02;2.67;;;1.77;;
5042;SDS011;2540;50.928;6.856;2023-03-23T07:29:28;5.83;;;1.30;;
5042;SDS011;2540;50.928;6.856;2023-03-23T07:31:53;12.80;;;1.30;;
5042;SDS011;2540;50.928;6.856;2023-03-23T07:34:20;3.73;;;2.10;;
5042;SDS011;2540;50.928;6.856;2023-03-23T07:36:45;4.03;;;1.50;;
5042;SDS011;2540;50.928;6.856;2023-03-23T07:39:11;3.13;;;1.30;;
5042;SDS011;2540;50.928;6.856;2023-03-23T07:41:37;2.10;;;1.57;;
5042;SDS011;2540;50.928;6.856;2023-03-23T07:44:03;6.00;;;1.50;;
5042;SDS011;2540;50.928;6.856;2023-03-23T07:46:29;2.67;;;1.13;;
5042;SDS011;2540;50.928;6.856;2023-03-23T07:48:55;4.73;;;1.17;;
5042;SDS011;2540;50.928;6.856;2023-03-23T07:51:21;4.10;;;1.30;;
5042;SDS011;2540;50.928;6.856;2023-03-23T07:53:47;1.23;;;1.03;;
5042;SDS011;2540;50.928;6.856;2023-03-23T07:56:12;4.20;;;1.30;;
5042;SDS011;2540;50.928;6.856;2023-03-23T07:58:40;2.97;;;1.20;;
5042;SDS011;2540;50.928;6.856;2023-03-23T08:01:06;5.47;;;1.50;;
5042;SDS011;2540;50.928;6.856;2023-03-23T08:03:32;6.40;;;1.07;;
5042;SDS011;2540;50.928;6.856;2023-03-23T08:05:58;5.27;;;1.43;;
5042;SDS011;2540;50.928;6.856;2023-03-23T08:08:24;8.90;;;1.73;;
5042;SDS011;2540;50.928;6.856;2023-03-23T08:10:50;2.27;;;2.07;;
5042;SDS011;2540;50.928;6.856;2023-03-23T08:13:15;5.03;;;1.30;;
5042;SDS011;2540;50.928;6.856;2023-03-23T08:15:40;2.00;;;1.30;;
5042;SDS011;2540;50.928;6.856;2023-03-23T08:18:06;4.40;;;1.30;;
5042;SDS011;2540;50.928;6.856;2023-03-23T08:20:32;2.73;;;1.10;;
5042;SDS011;2540;50.928;6.856;2023-03-23T08:22:57;4.20;;;1.50;;
5042;SDS011;2540;50.928;6.856;2023-03-23T08:25:24;5.40;;;1.63;;
5042;SDS011;2540;50.928;6.856;2023-03-23T08:27:51;3.57;;;1.23;;
5042;SDS011;2540;50.928;6.856;2023-03-23T08:30:18;4.40;;;1.33;;
5042;SDS011;2540;50.928;6.856;2023-03-23T08:32:44;2.73;;;1.63;;
5042;SDS011;2540;50.928;6.856;2023-03-23T08:35:11;4.13;;;1.20;;
5042;SDS011;2540;50.928;6.856;2023-03-23T08:37:38;4.37;;;1.30;;
5042;SDS011;2540;50.928;6.856;2023-03-23T08:40:07;3.87;;;1.30;;
5042;SDS011;2540;50.928;6.856;2023-03-23T08:42:39;9.63;;;1.23;;
5042;SDS011;2540;50.928;6.856;2023-03-23T08:45:06;2.63;;;1.30;;
5042;SDS011;2540;50.928;6.856;2023-03-23T08:47:33;2.60;;;1.30;;
5042;SDS011;2540;50.928;6.856;2023-03-23T08:50:00;1.33;;;1.23;;
5042;SDS011;2540;50.928;6.856;2023-03-23T08:52:27;5.93;;;1.43;;
5042;SDS011;2540;50.928;6.856;2023-03-23T08:54:53;7.13;;;1.57;;
5042;SDS011;2540;50.928;6.856;2023-03-23T08:57:19;4.50;;;1.50;;
5042;SDS011;2540;50.928;6.856;2023-03-23T08:59:44;1.20;;;1.03;;
5042;SDS011;2540;50.928;6.856;2023-03-23T09:02:10;5.00;;;1.70;;
5042;SDS011;2540;50.928;6.856;2023-03-23T09:04:37;1.63;;;1.20;;
5042;SDS011;2540;50.928;6.856;2023-03-23T09:07:03;1.10;;;0.90;;
5042;SDS011;2540;50.928;6.856;2023-03-23T09:09:28;5.70;;;1.30;;
5042;SDS011;2540;50.928;6.856;2023-03-23T09:11:54;2.50;;;1.43;;
5042;SDS011;2540;50.928;6.856;2023-03-23T09:14:19;5.73;;;1.43;;
5042;SDS011;2540;50.928;6.856;2023-03-23T09:16:45;4.80;;;1.70;;
5042;SDS011;2540;50.928;6.856;2023-03-23T09:19:10;4.50;;;1.37;;
5042;SDS011;2540;50.928;6.856;2023-03-23T09:21:37;2.37;;;1.10;;
5042;SDS011;2540;50.928;6.856;2023-03-23T09:24:02;5.63;;;1.37;;
5042;SDS011;2540;50.928;6.856;2023-03-23T09:26:29;1.83;;;0.87;;
5042;SDS011;2540;50.928;6.856;2023-03-23T09:28:55;4.70;;;1.50;;
5042;SDS011;2540;50.928;6.856;2023-03-23T09:31:21;6.00;;;1.00;;
5042;SDS011;2540;50.928;6.856;2023-03-23T09:33:48;3.97;;;1.30;;
5042;SDS011;2540;50.928;6.856;2023-03-23T09:36:17;1.93;;;1.30;;
5042;SDS011;2540;50.928;6.856;2023-03-23T09:38:43;6.20;;;1.40;;
5042;SDS011;2540;50.928;6.856;2023-03-23T09:43:52;3.90;;;1.50;;
5042;SDS011;2540;50.928;6.856;2023-03-23T09:49:32;3.17;;;1.10;;
5042;SDS011;2540;50.928;6.856;2023-03-23T09:52:15;2.50;;;1.10;;
5042;SDS011;2540;50.928;6.856;2023-03-23T09:54:49;14.33;;;1.77;;
5042;SDS011;2540;50.928;6.856;2023-03-23T09:57:19;3.53;;;1.53;;
5042;SDS011;2540;50.928;6.856;2023-03-23T10:02:40;4.13;;;1.30;;
5042;SDS011;2540;50.928;6.856;2023-03-23T10:07:52;4.13;;;1.10;;
5042;SDS011;2540;50.928;6.856;2023-03-23T10:10:17;4.17;;;1.37;;
5042;SDS011;2540;50.928;6.856;2023-03-23T10:15:17;2.70;;;0.97;;
5042;SDS011;2540;50.928;6.856;2023-03-23T10:22:41;9.40;;;1.57;;
5042;SDS011;2540;50.928;6.856;2023-03-23T10:28:00;2.83;;;0.90;;
5042;SDS011;2540;50.928;6.856;2023-03-23T10:30:45;3.13;;;1.20;;
5042;SDS011;2540;50.928;6.856;2023-03-23T10:33:28;2.83;;;1.13;;
5042;SDS011;2540;50.928;6.856;2023-03-23T10:36:00;1.80;;;0.87;;
5042;SDS011;2540;50.928;6.856;2023-03-23T10:38:38;5.50;;;0.80;;
5042;SDS011;2540;50.928;6.856;2023-03-23T10:41:23;1.80;;;1.33;;
5042;SDS011;2540;50.928;6.856;2023-03-23T10:43:49;4.97;;;1.17;;
5042;SDS011;2540;50.928;6.856;2023-03-23T10:49:02;1.23;;;0.80;;
5042;SDS011;2540;50.928;6.856;2023-03-23T10:51:32;1.17;;;0.80;;
5042;SDS011;2540;50.928;6.856;2023-03-23T10:54:01;1.67;;;0.83;;
5042;SDS011;2540;50.928;6.856;2023-03-23T10:56:41;1.43;;;0.90;;
5042;SDS011;2540;50.928;6.856;2023-03-23T10:59:13;2.83;;;0.90;;
5042;SDS011;2540;50.928;6.856;2023-03-23T11:01:42;2.93;;;1.03;;
5042;SDS011;2540;50.928;6.856;2023-03-23T11:04:13;1.03;;;0.73;;
5042;SDS011;2540;50.928;6.856;2023-03-23T11:06:43;2.50;;;0.73;;
5042;SDS011;2540;50.928;6.856;2023-03-23T11:09:15;1.23;;;0.70;;
5042;SDS011;2540;50.928;6.856;2023-03-23T11:11:47;0.70;;;0.70;;
5042;SDS011;2540;50.928;6.856;2023-03-23T11:14:28;1.43;;;0.70;;
5042;SDS011;2540;50.928;6.856;2023-03-23T11:16:59;2.00;;;0.87;;
5042;SDS011;2540;50.928;6.856;2023-03-23T11:21:52;1.53;;;0.90;;
5042;SDS011;2540;50.928;6.856;2023-03-23T11:24:21;3.90;;;1.20;;
5042;SDS011;2540;50.928;6.856;2023-03-23T11:26:48;1.97;;;1.20;;
5042;SDS011;2540;50.928;6.856;2023-03-23T11:29:16;1.50;;;0.90;;
5042;SDS011;2540;50.928;6.856;2023-03-23T11:31:50;0.80;;;0.70;;
5042;SDS011;2540;50.928;6.856;2023-03-23T11:34:25;2.67;;;1.17;;
5042;SDS011;2540;50.928;6.856;2023-03-23T11:37:02;1.23;;;0.70;;
5042;SDS011;2540;50.928;6.856;2023-03-23T11:39:31;1.90;;;1.00;;
5042;SDS011;2540;50.928;6.856;2023-03-23T11:42:34;2.00;;;0.90;;
5042;SDS011;2540;50.928;6.856;2023-03-23T11:45:21;3.53;;;0.90;;
5042;SDS011;2540;50.928;6.856;2023-03-23T11:48:03;1.63;;;1.00;;
5042;SDS011;2540;50.928;6.856;2023-03-23T11:51:00;2.27;;;0.73;;
5042;SDS011;2540;50.928;6.856;2023-03-23T11:58:47;1.93;;;0.80;;
5042;SDS011;2540;50.928;6.856;2023-03-23T12:01:21;1.00;;;0.90;;
5042;SDS011;2540;50.928;6.856;2023-03-23T12:18:12;2.00;;;0.70;;
5042;SDS011;2540;50.928;6.856;2023-03-23T12:29:51;1.60;;;0.77;;
5042;SDS011;2540;50.928;6.856;2023-03-23T12:32:53;2.40;;;1.00;;
5042;SDS011;2540;50.928;6.856;2023-03-23T12:49:07;1.43;;;1.00;;
5042;SDS011;2540;50.928;6.856;2023-03-23T12:54:46;1.80;;;1.10;;
5042;SDS011;2540;50.928;6.856;2023-03-23T12:57:35;1.70;;;1.03;;
5042;SDS011;2540;50.928;6.856;2023-03-23T13:00:20;1.43;;;1.10;;
5042;SDS011;2540;50.928;6.856;2023-03-23T13:05:32;1.80;;;1.10;;
5042;SDS011;2540;50.928;6.856;2023-03-23T13:08:22;3.30;;;1.23;;
5042;SDS011;2540;50.928;6.856;2023-03-23T13:10:48;3.17;;;1.20;;
5042;SDS011;2540;50.928;6.856;2023-03-23T13:13:19;2.53;;;1.23;;
5042;SDS011;2540;50.928;6.856;2023-03-23T13:23:42;1.30;;;0.90;;
5042;SDS011;2540;50.928;6.856;2023-03-23T13:26:14;3.27;;;0.90;;
5042;SDS011;2540;50.928;6.856;2023-03-23T13:31:37;2.73;;;1.00;;
5042;SDS011;2540;50.928;6.856;2023-03-23T13:37:09;2.73;;;0.80;;
5042;SDS011;2540;50.928;6.856;2023-03-23T13:39:38;8.23;;;1.03;;
5042;SDS011;2540;50.928;6.856;2023-03-23T13:47:36;1.10;;;1.00;;
5042;SDS011;2540;50.928;6.856;2023-03-23T13:52:50;4.53;;;0.90;;
5042;SDS011;2540;50.928;6.856;2023-03-23T14:11:09;6.10;;;1.20;;
5042;SDS011;2540;50.928;6.856;2023-03-23T14:16:41;1.80;;;1.40;;
5042;SDS011;2540;50.928;6.856;2023-03-23T14:22:00;4.80;;;1.33;;
5042;SDS011;2540;50.928;6.856;2023-03-23T14:24:27;5.47;;;1.87;;
5042;SDS011;2540;50.928;6.856;2023-03-23T14:27:10;4.77;;;1.40;;
5042;SDS011;2540;50.928;6.856;2023-03-23T14:29:38;4.83;;;1.50;;
5042;SDS011;2540;50.928;6.856;2023-03-23T14:32:04;1.77;;;1.40;;
5042;SDS011;2540;50.928;6.856;2023-03-23T14:34:31;2.30;;;1.50;;
5042;SDS011;2540;50.928;6.856;2023-03-23T14:36:57;5.73;;;1.50;;
5042;SDS011;2540;50.928;6.856;2023-03-23T14:41:51;2.30;;;1.20;;
5042;SDS011;2540;50.928;6.856;2023-03-23T14:44:31;3.17;;;1.27;;
5042;SDS011;2540;50.928;6.856;2023-03-23T14:47:01;2.00;;;1.20;;
5042;SDS011;2540;50.928;6.856;2023-03-23T14:49:36;11.00;;;1.70;;
5042;SDS011;2540;50.928;6.856;2023-03-23T14:52:08;2.93;;;1.37;;
5042;SDS011;2540;50.928;6.856;2023-03-23T14:54:34;8.40;;;1.23;;
5042;SDS011;2540;50.928;6.856;2023-03-23T14:57:02;2.20;;;1.33;;
5042;SDS011;2540;50.928;6.856;2023-03-23T14:59:35;5.10;;;1.63;;
5042;SDS011;2540;50.928;6.856;2023-03-23T15:02:01;2.23;;;1.20;;
5042;SDS011;2540;50.928;6.856;2023-03-23T15:04:26;5.90;;;1.60;;
5042;SDS011;2540;50.928;6.856;2023-03-23T15:06:56;4.83;;;1.40;;
5042;SDS011;2540;50.928;6.856;2023-03-23T15:09:25;2.07;;;1.13;;
5042;SDS011;2540;50.928;6.856;2023-03-23T15:12:03;11.63;;;2.57;;
5042;SDS011;2540;50.928;6.856;2023-03-23T15:14:30;4.87;;;1.93;;
5042;SDS011;2540;50.928;6.856;2023-03-23T15:17:11;2.03;;;1.00;;
5042;SDS011;2540;50.928;6.856;2023-03-23T15:19:44;3.90;;;1.10;;
5042;SDS011;2540;50.928;6.856;2023-03-23T15:22:25;7.37;;;1.90;;
5042;SDS011;2540;50.928;6.856;2023-03-23T15:27:40;4.27;;;1.60;;
5042;SDS011;2540;50.928;6.856;2023-03-23T15:30:28;6.47;;;1.10;;
5042;SDS011;2540;50.928;6.856;2023-03-23T15:33:00;4.60;;;1.40;;
5042;SDS011;2540;50.928;6.856;2023-03-23T15:35:27;1.83;;;1.17;;
5042;SDS011;2540;50.928;6.856;2023-03-23T15:37:59;4.10;;;1.40;;
5042;SDS011;2540;50.928;6.856;2023-03-23T15:40:27;9.93;;;1.37;;
5042;SDS011;2540;50.928;6.856;2023-03-23T15:48:21;6.87;;;1.90;;
5042;SDS011;2540;50.928;6.856;2023-03-23T15:50:47;3.77;;;1.63;;
5042;SDS011;2540;50.928;6.856;2023-03-23T15:53:27;1.73;;;1.23;;
5042;SDS011;2540;50.928;6.856;2023-03-23T15:55:58;5.60;;;1.50;;
5042;SDS011;2540;50.928;6.856;2023-03-23T15:58:25;6.40;;;2.00;;
5042;SDS011;2540;50.928;6.856;2023-03-23T16:00:51;5.73;;;1.53;;
5042;SDS011;2540;50.928;6.856;2023-03-23T16:03:20;6.17;;;2.20;;
5042;SDS011;2540;50.928;6.856;2023-03-23T16:05:51;3.00;;;1.60;;
5042;SDS011;2540;50.928;6.856;2023-03-23T16:08:17;4.93;;;1.73;;
5042;SDS011;2540;50.928;6.856;2023-03-23T16:10:42;3.40;;;1.83;;
5042;SDS011;2540;50.928;6.856;2023-03-23T16:13:07;2.93;;;1.30;;
5042;SDS011;2540;50.928;6.856;2023-03-23T16:15:33;10.20;;;1.70;;
5042;SDS011;2540;50.928;6.856;2023-03-23T16:17:58;4.53;;;1.43;;
5042;SDS011;2540;50.928;6.856;2023-03-23T16:20:23;5.57;;;1.80;;
5042;SDS011;2540;50.928;6.856;2023-03-23T16:22:49;7.00;;;1.50;;
5042;SDS011;2540;50.928;6.856;2023-03-23T16:25:15;2.60;;;1.30;;
5042;SDS011;2540;50.928;6.856;2023-03-23T16:27:42;4.20;;;1.57;;
5042;SDS011;2540;50.928;6.856;2023-03-23T16:32:46;5.50;;;1.60;;
5042;SDS011;2540;50.928;6.856;2023-03-23T16:35:12;4.67;;;1.73;;
5042;SDS011;2540;50.928;6.856;2023-03-23T16:37:42;6.50;;;1.73;;
5042;SDS011;2540;50.928;6.856;2023-03-23T16:40:09;7.20;;;1.40;;
5042;SDS011;2540;50.928;6.856;2023-03-23T16:42:35;2.03;;;1.30;;
5042;SDS011;2540;50.928;6.856;2023-03-23T16:45:01;7.77;;;1.80;;
5042;SDS011;2540;50.928;6.856;2023-03-23T16:47:26;12.03;;;2.17;;
5042;SDS011;2540;50.928;6.856;2023-03-23T16:49:51;5.07;;;1.80;;
5042;SDS011;2540;50.928;6.856;2023-03-23T16:52:18;6.57;;;2.00;;
5042;SDS011;2540;50.928;6.856;2023-03-23T16:54:43;8.97;;;1.90;;
5042;SDS011;2540;50.928;6.856;2023-03-23T16:57:09;6.50;;;1.93;;
5042;SDS011;2540;50.928;6.856;2023-03-23T16:59:35;13.83;;;1.80;;
5042;SDS011;2540;50.928;6.856;2023-03-23T17:02:00;10.23;;;2.17;;
5042;SDS011;2540;50.928;6.856;2023-03-23T17:04:31;3.70;;;1.53;;
5042;SDS011;2540;50.928;6.856;2023-03-23T17:06:57;4.83;;;1.60;;
5042;SDS011;2540;50.928;6.856;2023-03-23T17:09:24;2.97;;;1.70;;
5042;SDS011;2540;50.928;6.856;2023-03-23T17:11:50;6.53;;;2.17;;
5042;SDS011;2540;50.928;6.856;2023-03-23T17:14:15;5.27;;;2.67;;
5042;SDS011;2540;50.928;6.856;2023-03-23T17:16:41;6.00;;;1.70;;
5042;SDS011;2540;50.928;6.856;2023-03-23T17:19:06;7.83;;;2.23;;
5042;SDS011;2540;50.928;6.856;2023-03-23T17:21:32;10.20;;;2.10;;
5042;SDS011;2540;50.928;6.856;2023-03-23T17:23:57;7.73;;;2.60;;
5042;SDS011;2540;50.928;6.856;2023-03-23T17:26:22;7.13;;;1.77;;
5042;SDS011;2540;50.928;6.856;2023-03-23T17:28:48;6.13;;;1.60;;
5042;SDS011;2540;50.928;6.856;2023-03-23T17:31:13;5.97;;;2.33;;
5042;SDS011;2540;50.928;6.856;2023-03-23T17:33:38;5.17;;;1.80;;
5042;SDS011;2540;50.928;6.856;2023-03-23T17:36:04;7.07;;;2.70;;
5042;SDS011;2540;50.928;6.856;2023-03-23T17:38:29;6.47;;;1.70;;
5042;SDS011;2540;50.928;6.856;2023-03-23T17:40:58;5.33;;;2.00;;
5042;SDS011;2540;50.928;6.856;2023-03-23T17:43:24;6.73;;;1.77;;
5042;SDS011;2540;50.928;6.856;2023-03-23T17:45:49;3.20;;;1.90;;
5042;SDS011;2540;50.928;6.856;2023-03-23T17:48:15;5.53;;;1.57;;
5042;SDS011;2540;50.928;6.856;2023-03-23T17:50:40;5.33;;;1.80;;
5042;SDS011;2540;50.928;6.856;2023-03-23T17:56:13;6.10;;;1.77;;
5042;SDS011;2540;50.928;6.856;2023-03-23T17:58:38;11.10;;;1.93;;
5042;SDS011;2540;50.928;6.856;2023-03-23T18:01:03;4.40;;;1.63;;
5042;SDS011;2540;50.928;6.856;2023-03-23T18:03:29;10.30;;;2.80;;